sensor_id;sensor_type;location;lat;lon;timestamp;temperature;humidity
81307;DHT22;70775;50.846;3.224;2024-01-10T00:00:32;-2.40;85.30
81307;DHT22;70775;50.846;3.224;2024-01-10T00:03:05;-2.50;85.00
81307;DHT22;70775;50.846;3.224;2024-01-10T00:05:44;-2.40;85.10
81307;DHT22;70775;50.846;3.224;2024-01-10T00:08:29;-2.50;85.30
81307;DHT22;70775;50.846;3.224;2024-01-10T00:11:08;-2.40;85.50
81307;DHT22;70775;50.846;3.224;2024-01-10T00:14:12;-2.40;85.40
81307;DHT22;70775;50.846;3.224;2024-01-10T00:20:01;-2.30;85.10
81307;DHT22;70775;50.846;3.224;2024-01-10T00:23:07;-2.40;84.90
81307;DHT22;70775;50.846;3.224;2024-01-10T00:25:58;-2.40;85.20
81307;DHT22;70775;50.846;3.224;2024-01-10T00:32:36;-2.40;85.70
81307;DHT22;70775;50.846;3.224;2024-01-10T00:39:00;-2.60;86.40
81307;DHT22;70775;50.846;3.224;2024-01-10T01:10:53;-2.70;88.40
81307;DHT22;70775;50.846;3.224;2024-01-10T01:27:15;-2.90;89.40
81307;DHT22;70775;50.846;3.224;2024-01-10T01:55:37;-3.10;90.20
81307;DHT22;70775;50.846;3.224;2024-01-10T02:02:16;-3.20;90.70
81307;DHT22;70775;50.846;3.224;2024-01-10T03:02:34;-3.20;91.00
81307;DHT22;70775;50.846;3.224;2024-01-10T03:59:26;-3.60;92.10
81307;DHT22;70775;50.846;3.224;2024-01-10T04:37:13;-3.70;92.80
81307;DHT22;70775;50.846;3.224;2024-01-10T07:10:14;-3.70;92.10
81307;DHT22;70775;50.846;3.224;2024-01-10T07:20:01;-3.70;92.20
81307;DHT22;70775;50.846;3.224;2024-01-10T07:26:01;-3.90;92.60
81307;DHT22;70775;50.846;3.224;2024-01-10T09:42:56;-2.40;90.10
81307;DHT22;70775;50.846;3.224;2024-01-10T10:25:47;-1.60;84.70
81307;DHT22;70775;50.846;3.224;2024-01-10T10:28:16;-1.60;83.80
81307;DHT22;70775;50.846;3.224;2024-01-10T10:30:47;-1.50;85.30
81307;DHT22;70775;50.846;3.224;2024-01-10T10:33:18;-1.40;84.20
81307;DHT22;70775;50.846;3.224;2024-01-10T10:35:56;-1.30;84.20
81307;DHT22;70775;50.846;3.224;2024-01-10T10:38:26;-1.10;82.90
81307;DHT22;70775;50.846;3.224;2024-01-10T10:41:03;-1.10;81.80
81307;DHT22;70775;50.846;3.224;2024-01-10T10:43:35;-1.00;82.80
81307;DHT22;70775;50.846;3.224;2024-01-10T10:46:08;-0.90;81.80
81307;DHT22;70775;50.846;3.224;2024-01-10T10:48:40;-0.70;81.40
81307;DHT22;70775;50.846;3.224;2024-01-10T10:51:13;-0.50;80.10
81307;DHT22;70775;50.846;3.224;2024-01-10T10:53:42;-0.50;80.80
81307;DHT22;70775;50.846;3.224;2024-01-10T10:56:13;-0.50;80.10
81307;DHT22;70775;50.846;3.224;2024-01-10T10:58:43;-0.40;80.10
81307;DHT22;70775;50.846;3.224;2024-01-10T11:01:14;-0.30;79.10
81307;DHT22;70775;50.846;3.224;2024-01-10T11:03:42;-0.30;79.90
81307;DHT22;70775;50.846;3.224;2024-01-10T11:06:11;-0.10;80.00
81307;DHT22;70775;50.846;3.224;2024-01-10T11:09:07;-0.10;76.50
81307;DHT22;70775;50.846;3.224;2024-01-10T11:14:47;-0.30;78.30
81307;DHT22;70775;50.846;3.224;2024-01-10T11:25:30;-0.30;77.90
81307;DHT22;70775;50.846;3.224;2024-01-10T11:27:56;-0.20;78.90
81307;DHT22;70775;50.846;3.224;2024-01-10T11:30:48;-0.20;77.40
81307;DHT22;70775;50.846;3.224;2024-01-10T11:33:23;-0.20;77.90
81307;DHT22;70775;50.846;3.224;2024-01-10T11:36:13;0.00;75.90
81307;DHT22;70775;50.846;3.224;2024-01-10T11:41:27;0.00;76.70
81307;DHT22;70775;50.846;3.224;2024-01-10T11:46:50;0.10;74.60
81307;DHT22;70775;50.846;3.224;2024-01-10T11:49:19;0.10;74.60
81307;DHT22;70775;50.846;3.224;2024-01-10T11:51:46;0.30;74.60
81307;DHT22;70775;50.846;3.224;2024-01-10T11:54:11;0.20;74.30
81307;DHT22;70775;50.846;3.224;2024-01-10T11:56:40;0.20;74.40
81307;DHT22;70775;50.846;3.224;2024-01-10T11:59:10;0.40;74.10
81307;DHT22;70775;50.846;3.224;2024-01-10T12:01:41;0.40;72.30
81307;DHT22;70775;50.846;3.224;2024-01-10T12:04:07;0.50;73.10
81307;DHT22;70775;50.846;3.224;2024-01-10T12:06:36;0.70;72.80
81307;DHT22;70775;50.846;3.224;2024-01-10T12:09:03;0.80;71.20
81307;DHT22;70775;50.846;3.224;2024-01-10T12:11:34;0.90;72.10
81307;DHT22;70775;50.846;3.224;2024-01-10T12:14:04;1.10;71.30
81307;DHT22;70775;50.846;3.224;2024-01-10T12:16:30;1.30;69.70
81307;DHT22;70775;50.846;3.224;2024-01-10T12:18:55;1.50;68.50
81307;DHT22;70775;50.846;3.224;2024-01-10T12:21:21;1.60;69.10
81307;DHT22;70775;50.846;3.224;2024-01-10T12:23:47;1.80;67.10
81307;DHT22;70775;50.846;3.224;2024-01-10T12:26:14;1.90;68.70
81307;DHT22;70775;50.846;3.224;2024-01-10T12:28:40;2.20;67.80
81307;DHT22;70775;50.846;3.224;2024-01-10T12:31:08;2.20;66.90
81307;DHT22;70775;50.846;3.224;2024-01-10T12:33:34;2.20;66.90
81307;DHT22;70775;50.846;3.224;2024-01-10T12:36:09;2.00;65.50
81307;DHT22;70775;50.846;3.224;2024-01-10T12:38:35;1.80;66.70
81307;DHT22;70775;50.846;3.224;2024-01-10T12:41:01;1.60;68.00
81307;DHT22;70775;50.846;3.224;2024-01-10T12:43:28;1.40;68.00
81307;DHT22;70775;50.846;3.224;2024-01-10T12:46:11;1.20;69.50
81307;DHT22;70775;50.846;3.224;2024-01-10T12:48:39;1.10;69.80
81307;DHT22;70775;50.846;3.224;2024-01-10T12:51:07;1.00;70.50
81307;DHT22;70775;50.846;3.224;2024-01-10T12:53:38;1.00;70.30
81307;DHT22;70775;50.846;3.224;2024-01-10T12:56:05;1.10;71.60
81307;DHT22;70775;50.846;3.224;2024-01-10T12:58:33;1.10;71.60
81307;DHT22;70775;50.846;3.224;2024-01-10T13:01:00;1.20;70.70
81307;DHT22;70775;50.846;3.224;2024-01-10T13:03:26;1.30;70.30
81307;DHT22;70775;50.846;3.224;2024-01-10T13:05:51;1.20;69.90
81307;DHT22;70775;50.846;3.224;2024-01-10T13:08:20;1.30;70.60
81307;DHT22;70775;50.846;3.224;2024-01-10T13:10:46;1.50;70.50
81307;DHT22;70775;50.846;3.224;2024-01-10T13:13:13;1.70;70.00
81307;DHT22;70775;50.846;3.224;2024-01-10T13:15:38;2.00;69.10
81307;DHT22;70775;50.846;3.224;2024-01-10T13:18:04;2.20;68.30
81307;DHT22;70775;50.846;3.224;2024-01-10T13:20:30;2.40;66.40
81307;DHT22;70775;50.846;3.224;2024-01-10T13:22:56;2.50;66.70
81307;DHT22;70775;50.846;3.224;2024-01-10T13:25:21;2.50;65.50
81307;DHT22;70775;50.846;3.224;2024-01-10T13:27:50;2.70;66.40
81307;DHT22;70775;50.846;3.224;2024-01-10T13:30:16;2.80;66.00
81307;DHT22;70775;50.846;3.224;2024-01-10T13:32:43;3.00;65.80
81307;DHT22;70775;50.846;3.224;2024-01-10T13:35:09;3.40;65.00
81307;DHT22;70775;50.846;3.224;2024-01-10T13:37:36;3.80;62.70
81307;DHT22;70775;50.846;3.224;2024-01-10T13:40:02;3.80;62.30
81307;DHT22;70775;50.846;3.224;2024-01-10T13:42:31;3.50;61.80
81307;DHT22;70775;50.846;3.224;2024-01-10T13:44:56;3.30;62.90
81307;DHT22;70775;50.846;3.224;2024-01-10T13:47:22;3.40;63.00
81307;DHT22;70775;50.846;3.224;2024-01-10T13:49:48;3.70;64.00
81307;DHT22;70775;50.846;3.224;2024-01-10T13:52:14;4.10;61.80
81307;DHT22;70775;50.846;3.224;2024-01-10T13:54:40;4.30;60.70
81307;DHT22;70775;50.846;3.224;2024-01-10T13:57:05;4.00;60.30
81307;DHT22;70775;50.846;3.224;2024-01-10T13:59:31;4.10;62.10
81307;DHT22;70775;50.846;3.224;2024-01-10T14:01:57;4.40;61.10
81307;DHT22;70775;50.846;3.224;2024-01-10T14:04:24;4.60;60.00
81307;DHT22;70775;50.846;3.224;2024-01-10T14:06:50;4.40;59.60
81307;DHT22;70775;50.846;3.224;2024-01-10T14:09:16;4.30;59.50
81307;DHT22;70775;50.846;3.224;2024-01-10T14:11:45;4.40;60.30
81307;DHT22;70775;50.846;3.224;2024-01-10T14:14:14;4.60;59.90
81307;DHT22;70775;50.846;3.224;2024-01-10T14:16:39;5.00;60.00
81307;DHT22;70775;50.846;3.224;2024-01-10T14:19:06;5.00;58.30
81307;DHT22;70775;50.846;3.224;2024-01-10T14:21:32;5.10;57.90
81307;DHT22;70775;50.846;3.224;2024-01-10T14:23:58;4.80;58.10
81307;DHT22;70775;50.846;3.224;2024-01-10T14:26:23;4.70;58.20
81307;DHT22;70775;50.846;3.224;2024-01-10T14:28:52;4.50;59.10
81307;DHT22;70775;50.846;3.224;2024-01-10T14:31:21;4.60;58.90
81307;DHT22;70775;50.846;3.224;2024-01-10T14:33:47;4.60;59.10
81307;DHT22;70775;50.846;3.224;2024-01-10T14:36:15;4.70;58.80
81307;DHT22;70775;50.846;3.224;2024-01-10T14:38:41;4.90;57.90
81307;DHT22;70775;50.846;3.224;2024-01-10T14:41:07;5.00;57.60
81307;DHT22;70775;50.846;3.224;2024-01-10T14:43:35;4.80;58.80
81307;DHT22;70775;50.846;3.224;2024-01-10T14:46:01;4.70;58.80
81307;DHT22;70775;50.846;3.224;2024-01-10T14:48:27;4.60;59.10
81307;DHT22;70775;50.846;3.224;2024-01-10T14:50:53;4.80;58.70
81307;DHT22;70775;50.846;3.224;2024-01-10T14:53:19;4.90;58.60
81307;DHT22;70775;50.846;3.224;2024-01-10T14:55:44;5.10;59.70
81307;DHT22;70775;50.846;3.224;2024-01-10T14:58:10;5.20;57.70
81307;DHT22;70775;50.846;3.224;2024-01-10T15:00:36;5.20;57.60
81307;DHT22;70775;50.846;3.224;2024-01-10T15:03:01;5.30;57.00
81307;DHT22;70775;50.846;3.224;2024-01-10T15:05:29;5.50;57.40
81307;DHT22;70775;50.846;3.224;2024-01-10T15:07:55;5.20;57.30
81307;DHT22;70775;50.846;3.224;2024-01-10T15:10:21;5.00;57.60
81307;DHT22;70775;50.846;3.224;2024-01-10T15:12:46;4.60;57.80
81307;DHT22;70775;50.846;3.224;2024-01-10T15:15:12;4.10;59.10
81307;DHT22;70775;50.846;3.224;2024-01-10T15:17:38;3.80;60.50
81307;DHT22;70775;50.846;3.224;2024-01-10T15:20:05;3.60;60.70
81307;DHT22;70775;50.846;3.224;2024-01-10T15:22:32;3.50;62.30
81307;DHT22;70775;50.846;3.224;2024-01-10T15:24:58;3.40;62.10
81307;DHT22;70775;50.846;3.224;2024-01-10T15:27:25;3.40;62.00
81307;DHT22;70775;50.846;3.224;2024-01-10T15:29:53;3.20;62.70
81307;DHT22;70775;50.846;3.224;2024-01-10T15:32:19;3.10;63.50
81307;DHT22;70775;50.846;3.224;2024-01-10T15:34:45;3.20;62.90
81307;DHT22;70775;50.846;3.224;2024-01-10T15:37:11;3.00;63.00
81307;DHT22;70775;50.846;3.224;2024-01-10T15:39:36;2.90;63.50
81307;DHT22;70775;50.846;3.224;2024-01-10T15:42:04;2.80;64.80
81307;DHT22;70775;50.846;3.224;2024-01-10T15:44:30;2.50;65.10
81307;DHT22;70775;50.846;3.224;2024-01-10T15:46:55;2.20;66.10
81307;DHT22;70775;50.846;3.224;2024-01-10T15:49:23;2.00;67.00
81307;DHT22;70775;50.846;3.224;2024-01-10T15:51:49;1.90;67.80
81307;DHT22;70775;50.846;3.224;2024-01-10T15:54:15;2.00;67.90
81307;DHT22;70775;50.846;3.224;2024-01-10T15:56:41;1.90;68.30
81307;DHT22;70775;50.846;3.224;2024-01-10T15:59:07;2.00;68.30
81307;DHT22;70775;50.846;3.224;2024-01-10T16:01:34;1.90;69.10
81307;DHT22;70775;50.846;3.224;2024-01-10T16:04:00;1.80;69.50
81307;DHT22;70775;50.846;3.224;2024-01-10T16:06:27;1.70;69.00
81307;DHT22;70775;50.846;3.224;2024-01-10T16:08:52;1.60;69.60
81307;DHT22;70775;50.846;3.224;2024-01-10T16:11:18;1.40;70.60
81307;DHT22;70775;50.846;3.224;2024-01-10T16:13:44;1.40;71.90
81307;DHT22;70775;50.846;3.224;2024-01-10T16:16:09;1.40;71.50
81307;DHT22;70775;50.846;3.224;2024-01-10T16:18:36;1.50;73.00
81307;DHT22;70775;50.846;3.224;2024-01-10T16:21:02;1.50;71.60
81307;DHT22;70775;50.846;3.224;2024-01-10T16:23:28;1.40;71.40
81307;DHT22;70775;50.846;3.224;2024-01-10T16:25:54;1.40;72.20
81307;DHT22;70775;50.846;3.224;2024-01-10T16:28:20;1.30;72.30
81307;DHT22;70775;50.846;3.224;2024-01-10T16:30:45;1.30;72.00
81307;DHT22;70775;50.846;3.224;2024-01-10T16:33:11;1.10;72.50
81307;DHT22;70775;50.846;3.224;2024-01-10T16:35:36;1.10;73.50
81307;DHT22;70775;50.846;3.224;2024-01-10T16:38:02;1.20;73.50
81307;DHT22;70775;50.846;3.224;2024-01-10T16:40:28;1.20;73.60
81307;DHT22;70775;50.846;3.224;2024-01-10T16:42:53;1.20;73.60
81307;DHT22;70775;50.846;3.224;2024-01-10T16:45:19;1.10;74.10
81307;DHT22;70775;50.846;3.224;2024-01-10T16:47:45;1.20;74.40
81307;DHT22;70775;50.846;3.224;2024-01-10T16:50:11;1.20;73.90
81307;DHT22;70775;50.846;3.224;2024-01-10T16:52:36;1.30;73.60
81307;DHT22;70775;50.846;3.224;2024-01-10T16:55:02;1.30;74.70
81307;DHT22;70775;50.846;3.224;2024-01-10T16:57:28;1.20;73.80
81307;DHT22;70775;50.846;3.224;2024-01-10T16:59:54;1.30;75.80
81307;DHT22;70775;50.846;3.224;2024-01-10T17:02:20;1.40;75.50
81307;DHT22;70775;50.846;3.224;2024-01-10T17:04:45;1.30;74.80
81307;DHT22;70775;50.846;3.224;2024-01-10T17:07:11;1.40;73.70
81307;DHT22;70775;50.846;3.224;2024-01-10T17:09:40;1.40;73.70
81307;DHT22;70775;50.846;3.224;2024-01-10T17:12:06;1.30;74.10
81307;DHT22;70775;50.846;3.224;2024-01-10T17:14:32;1.30;73.60
81307;DHT22;70775;50.846;3.224;2024-01-10T17:16:58;1.30;73.60
81307;DHT22;70775;50.846;3.224;2024-01-10T17:19:24;1.40;74.30
81307;DHT22;70775;50.846;3.224;2024-01-10T17:21:49;1.30;73.60
81307;DHT22;70775;50.846;3.224;2024-01-10T17:24:15;1.20;74.50
81307;DHT22;70775;50.846;3.224;2024-01-10T17:26:40;1.20;74.70
81307;DHT22;70775;50.846;3.224;2024-01-10T17:29:06;1.30;75.00
81307;DHT22;70775;50.846;3.224;2024-01-10T17:31:32;1.30;74.80
81307;DHT22;70775;50.846;3.224;2024-01-10T17:33:58;1.30;75.90
81307;DHT22;70775;50.846;3.224;2024-01-10T17:36:24;1.30;75.10
81307;DHT22;70775;50.846;3.224;2024-01-10T17:38:50;1.20;75.00
81307;DHT22;70775;50.846;3.224;2024-01-10T17:41:17;1.10;76.10
81307;DHT22;70775;50.846;3.224;2024-01-10T17:43:44;1.00;75.90
81307;DHT22;70775;50.846;3.224;2024-01-10T17:46:09;1.00;76.00
81307;DHT22;70775;50.846;3.224;2024-01-10T17:48:35;0.90;76.00
81307;DHT22;70775;50.846;3.224;2024-01-10T17:51:01;0.80;77.90
81307;DHT22;70775;50.846;3.224;2024-01-10T17:53:27;0.80;76.90
81307;DHT22;70775;50.846;3.224;2024-01-10T17:55:52;0.80;76.90
81307;DHT22;70775;50.846;3.224;2024-01-10T17:58:19;0.80;76.80
81307;DHT22;70775;50.846;3.224;2024-01-10T18:00:45;0.70;77.50
81307;DHT22;70775;50.846;3.224;2024-01-10T18:03:11;0.60;78.30
81307;DHT22;70775;50.846;3.224;2024-01-10T18:05:36;0.60;78.50
81307;DHT22;70775;50.846;3.224;2024-01-10T18:08:05;0.60;78.00
81307;DHT22;70775;50.846;3.224;2024-01-10T18:10:31;0.60;79.30
81307;DHT22;70775;50.846;3.224;2024-01-10T18:12:57;0.60;78.90
81307;DHT22;70775;50.846;3.224;2024-01-10T18:15:27;0.50;80.50
81307;DHT22;70775;50.846;3.224;2024-01-10T18:17:53;0.50;79.50
81307;DHT22;70775;50.846;3.224;2024-01-10T18:20:18;0.50;79.60
81307;DHT22;70775;50.846;3.224;2024-01-10T18:22:46;0.50;79.50
81307;DHT22;70775;50.846;3.224;2024-01-10T18:25:12;0.50;79.70
81307;DHT22;70775;50.846;3.224;2024-01-10T18:27:38;0.50;80.30
81307;DHT22;70775;50.846;3.224;2024-01-10T18:30:04;0.40;80.30
81307;DHT22;70775;50.846;3.224;2024-01-10T18:32:31;0.40;80.30
81307;DHT22;70775;50.846;3.224;2024-01-10T18:34:57;0.30;80.80
81307;DHT22;70775;50.846;3.224;2024-01-10T18:37:23;0.20;81.40
81307;DHT22;70775;50.846;3.224;2024-01-10T18:39:48;0.20;81.70
81307;DHT22;70775;50.846;3.224;2024-01-10T18:42:15;0.10;82.00
81307;DHT22;70775;50.846;3.224;2024-01-10T18:44:41;0.10;82.10
81307;DHT22;70775;50.846;3.224;2024-01-10T18:47:07;0.10;82.30
81307;DHT22;70775;50.846;3.224;2024-01-10T18:49:33;0.10;82.70
81307;DHT22;70775;50.846;3.224;2024-01-10T18:51:59;0.00;82.80
81307;DHT22;70775;50.846;3.224;2024-01-10T18:54:26;0.00;83.10
81307;DHT22;70775;50.846;3.224;2024-01-10T18:56:51;0.00;82.90
81307;DHT22;70775;50.846;3.224;2024-01-10T18:59:17;0.00;83.40
81307;DHT22;70775;50.846;3.224;2024-01-10T19:01:43;0.00;83.90
81307;DHT22;70775;50.846;3.224;2024-01-10T19:04:12;-0.10;84.10
81307;DHT22;70775;50.846;3.224;2024-01-10T19:06:39;-0.20;84.00
81307;DHT22;70775;50.846;3.224;2024-01-10T19:09:06;-0.20;84.10
81307;DHT22;70775;50.846;3.224;2024-01-10T19:11:31;-0.20;84.80
81307;DHT22;70775;50.846;3.224;2024-01-10T19:13:57;-0.20;84.60
81307;DHT22;70775;50.846;3.224;2024-01-10T19:16:23;-0.20;84.20
81307;DHT22;70775;50.846;3.224;2024-01-10T19:18:49;-0.30;84.80
81307;DHT22;70775;50.846;3.224;2024-01-10T19:21:15;-0.30;85.10
81307;DHT22;70775;50.846;3.224;2024-01-10T19:23:41;-0.30;84.60
81307;DHT22;70775;50.846;3.224;2024-01-10T19:26:20;-0.30;84.30
81307;DHT22;70775;50.846;3.224;2024-01-10T19:28:46;-0.30;84.40
81307;DHT22;70775;50.846;3.224;2024-01-10T19:31:11;-0.40;84.20
81307;DHT22;70775;50.846;3.224;2024-01-10T19:33:39;-0.50;86.00
81307;DHT22;70775;50.846;3.224;2024-01-10T19:36:06;-0.50;85.50
81307;DHT22;70775;50.846;3.224;2024-01-10T19:38:32;-0.50;85.60
81307;DHT22;70775;50.846;3.224;2024-01-10T19:40:57;-0.50;85.70
81307;DHT22;70775;50.846;3.224;2024-01-10T19:43:25;-0.50;85.10
81307;DHT22;70775;50.846;3.224;2024-01-10T19:45:52;-0.60;85.30
81307;DHT22;70775;50.846;3.224;2024-01-10T19:48:18;-0.70;85.80
81307;DHT22;70775;50.846;3.224;2024-01-10T19:50:46;-0.80;86.60
81307;DHT22;70775;50.846;3.224;2024-01-10T19:53:12;-0.70;86.70
81307;DHT22;70775;50.846;3.224;2024-01-10T19:55:39;-0.70;86.70
81307;DHT22;70775;50.846;3.224;2024-01-10T19:58:05;-0.70;86.70
81307;DHT22;70775;50.846;3.224;2024-01-10T20:00:30;-0.80;87.00
81307;DHT22;70775;50.846;3.224;2024-01-10T20:02:58;-0.80;87.30
81307;DHT22;70775;50.846;3.224;2024-01-10T20:05:23;-0.70;87.30
81307;DHT22;70775;50.846;3.224;2024-01-10T20:07:49;-0.70;87.40
81307;DHT22;70775;50.846;3.224;2024-01-10T20:10:15;-0.80;87.70
81307;DHT22;70775;50.846;3.224;2024-01-10T20:12:40;-0.80;87.80
81307;DHT22;70775;50.846;3.224;2024-01-10T20:15:07;-0.80;88.10
81307;DHT22;70775;50.846;3.224;2024-01-10T20:17:33;-0.90;88.50
81307;DHT22;70775;50.846;3.224;2024-01-10T20:19:59;-0.90;88.30
81307;DHT22;70775;50.846;3.224;2024-01-10T20:22:25;-0.90;88.30
81307;DHT22;70775;50.846;3.224;2024-01-10T20:24:51;-1.10;88.90
81307;DHT22;70775;50.846;3.224;2024-01-10T20:27:17;-1.10;89.30
81307;DHT22;70775;50.846;3.224;2024-01-10T20:29:44;-1.00;89.20
81307;DHT22;70775;50.846;3.224;2024-01-10T20:32:14;-1.00;88.80
81307;DHT22;70775;50.846;3.224;2024-01-10T20:34:40;-1.00;88.80
81307;DHT22;70775;50.846;3.224;2024-01-10T20:37:06;-1.00;89.70
81307;DHT22;70775;50.846;3.224;2024-01-10T20:39:32;-1.00;89.70
81307;DHT22;70775;50.846;3.224;2024-01-10T20:41:58;-1.00;90.00
81307;DHT22;70775;50.846;3.224;2024-01-10T20:44:23;-1.00;90.00
81307;DHT22;70775;50.846;3.224;2024-01-10T20:46:49;-1.00;90.30
81307;DHT22;70775;50.846;3.224;2024-01-10T20:49:16;-1.10;90.40
81307;DHT22;70775;50.846;3.224;2024-01-10T20:51:41;-1.10;90.50
81307;DHT22;70775;50.846;3.224;2024-01-10T20:54:07;-1.00;90.50
81307;DHT22;70775;50.846;3.224;2024-01-10T20:56:32;-1.10;90.90
81307;DHT22;70775;50.846;3.224;2024-01-10T20:58:58;-1.10;91.10
81307;DHT22;70775;50.846;3.224;2024-01-10T21:01:24;-1.20;91.20
81307;DHT22;70775;50.846;3.224;2024-01-10T21:03:50;-1.20;91.30
81307;DHT22;70775;50.846;3.224;2024-01-10T21:06:16;-1.30;91.40
81307;DHT22;70775;50.846;3.224;2024-01-10T21:08:42;-1.40;91.70
81307;DHT22;70775;50.846;3.224;2024-01-10T21:11:07;-1.30;91.80
81307;DHT22;70775;50.846;3.224;2024-01-10T21:13:33;-1.40;91.90
81307;DHT22;70775;50.846;3.224;2024-01-10T21:15:59;-1.40;92.10
81307;DHT22;70775;50.846;3.224;2024-01-10T21:18:24;-1.50;92.30
81307;DHT22;70775;50.846;3.224;2024-01-10T21:20:50;-1.60;92.50
81307;DHT22;70775;50.846;3.224;2024-01-10T21:23:17;-1.50;92.40
81307;DHT22;70775;50.846;3.224;2024-01-10T21:25:43;-1.50;92.20
81307;DHT22;70775;50.846;3.224;2024-01-10T21:28:10;-1.50;92.50
81307;DHT22;70775;50.846;3.224;2024-01-10T21:30:35;-1.50;92.60
81307;DHT22;70775;50.846;3.224;2024-01-10T21:33:01;-1.60;92.50
81307;DHT22;70775;50.846;3.224;2024-01-10T21:35:29;-1.60;92.60
81307;DHT22;70775;50.846;3.224;2024-01-10T21:37:55;-1.60;92.80
81307;DHT22;70775;50.846;3.224;2024-01-10T21:40:21;-1.70;92.90
81307;DHT22;70775;50.846;3.224;2024-01-10T21:42:47;-1.60;92.90
81307;DHT22;70775;50.846;3.224;2024-01-10T21:45:12;-1.60;92.90
81307;DHT22;70775;50.846;3.224;2024-01-10T21:47:38;-1.60;93.00
81307;DHT22;70775;50.846;3.224;2024-01-10T21:50:04;-1.60;92.90
81307;DHT22;70775;50.846;3.224;2024-01-10T21:52:30;-1.50;92.90
81307;DHT22;70775;50.846;3.224;2024-01-10T21:54:56;-1.70;92.70
81307;DHT22;70775;50.846;3.224;2024-01-10T21:57:24;-1.50;92.80
81307;DHT22;70775;50.846;3.224;2024-01-10T21:59:50;-1.50;92.60
81307;DHT22;70775;50.846;3.224;2024-01-10T22:02:16;-1.60;92.20
81307;DHT22;70775;50.846;3.224;2024-01-10T22:04:41;-1.60;92.30
81307;DHT22;70775;50.846;3.224;2024-01-10T22:07:10;-1.50;92.20
81307;DHT22;70775;50.846;3.224;2024-01-10T22:09:35;-1.60;92.10
81307;DHT22;70775;50.846;3.224;2024-01-10T22:12:01;-1.60;92.10
81307;DHT22;70775;50.846;3.224;2024-01-10T22:14:27;-1.70;92.20
81307;DHT22;70775;50.846;3.224;2024-01-10T22:16:54;-1.70;92.30
81307;DHT22;70775;50.846;3.224;2024-01-10T22:19:20;-1.70;92.30
81307;DHT22;70775;50.846;3.224;2024-01-10T22:21:46;-1.60;92.00
81307;DHT22;70775;50.846;3.224;2024-01-10T22:24:11;-1.60;91.90
81307;DHT22;70775;50.846;3.224;2024-01-10T22:26:38;-1.60;92.00
81307;DHT22;70775;50.846;3.224;2024-01-10T22:29:03;-1.70;92.10
81307;DHT22;70775;50.846;3.224;2024-01-10T22:31:29;-1.70;92.30
81307;DHT22;70775;50.846;3.224;2024-01-10T22:33:55;-1.70;92.30
81307;DHT22;70775;50.846;3.224;2024-01-10T22:36:20;-1.70;92.50
81307;DHT22;70775;50.846;3.224;2024-01-10T22:38:46;-1.70;92.60
81307;DHT22;70775;50.846;3.224;2024-01-10T22:41:12;-1.60;92.30
81307;DHT22;70775;50.846;3.224;2024-01-10T22:43:39;-1.60;92.30
81307;DHT22;70775;50.846;3.224;2024-01-10T22:46:05;-1.50;92.20
81307;DHT22;70775;50.846;3.224;2024-01-10T22:48:31;-1.60;92.30
81307;DHT22;70775;50.846;3.224;2024-01-10T22:50:57;-1.60;92.70
81307;DHT22;70775;50.846;3.224;2024-01-10T22:53:23;-1.70;92.70
81307;DHT22;70775;50.846;3.224;2024-01-10T22:55:48;-1.70;92.80
81307;DHT22;70775;50.846;3.224;2024-01-10T23:01:48;-1.70;92.90
81307;DHT22;70775;50.846;3.224;2024-01-10T23:07:38;-1.70;93.20
81307;DHT22;70775;50.846;3.224;2024-01-10T23:10:07;-1.60;93.20
81307;DHT22;70775;50.846;3.224;2024-01-10T23:12:34;-1.70;93.20
81307;DHT22;70775;50.846;3.224;2024-01-10T23:15:05;-1.60;93.40
81307;DHT22;70775;50.846;3.224;2024-01-10T23:17:39;-1.70;93.40
81307;DHT22;70775;50.846;3.224;2024-01-10T23:20:15;-1.60;93.50
81307;DHT22;70775;50.846;3.224;2024-01-10T23:23:05;-1.70;93.60
81307;DHT22;70775;50.846;3.224;2024-01-10T23:25:44;-1.70;93.90
81307;DHT22;70775;50.846;3.224;2024-01-10T23:28:18;-1.90;94.00
81307;DHT22;70775;50.846;3.224;2024-01-10T23:31:13;-1.90;94.00
81307;DHT22;70775;50.846;3.224;2024-01-10T23:33:45;-1.90;94.30
81307;DHT22;70775;50.846;3.224;2024-01-10T23:36:16;-1.90;94.40
81307;DHT22;70775;50.846;3.224;2024-01-10T23:38:41;-1.90;94.40
81307;DHT22;70775;50.846;3.224;2024-01-10T23:41:15;-1.90;94.50
81307;DHT22;70775;50.846;3.224;2024-01-10T23:44:18;-1.90;94.50
81307;DHT22;70775;50.846;3.224;2024-01-10T23:47:04;-2.10;94.60
81307;DHT22;70775;50.846;3.224;2024-01-10T23:50:05;-2.00;95.20
81307;DHT22;70775;50.846;3.224;2024-01-10T23:53:00;-2.10;94.80
81307;DHT22;70775;50.846;3.224;2024-01-10T23:55:55;-2.10;95.10
